Terminal Aerodrome Forecast
Issued by NWS Charleston, WV

Current Version | Previous Version | Graphics & Text | Print | Product List | Glossary On
Versions: 1 2 3 4 5 6 7 8 9 10 11 12 13 14 15 16 17
000
FTUS41 KRLX 221700
TAFEKN
TAF
KEKN 221739Z 2218/2318 13004KT P6SM OVC050
     FM230100 VRB03KT P6SM OVC040
     FM231000 16004KT P6SM BKN025
     FM231200 16005KT P6SM BKN020
     FM231400 16006KT P6SM BKN025
     FM231700 17007KT P6SM BKN040=

USA.gov is the U.S. government's official web portal to all federal, state and local government web resources and services.